Time;durP1;ratioP1;P1;durP2;ratioP2;P2;SDS_P1;SDS_P2;PMS_P1;PMS_P2;Temp;Humidity;BMP_temperature;BMP_pressure;BME280_temperature;BME280_humidity;BME280_pressure;Samples;Min_cycle;Max_cycle;Signal;HPM_P1;HPM_P2
2022/06/28 00:01:59;;;;;;;4.80;4.50;;;;;;;15.44;100.00;101517.34;5036158;28;20062;-84
2022/06/28 00:04:25;;;;;;;5.05;4.60;;;;;;;15.44;100.00;101525.25;5035935;28;20175;-84
2022/06/28 00:06:50;;;;;;;5.05;4.65;;;;;;;15.44;100.00;101520.84;5036083;28;20486;-84
2022/06/28 00:09:16;;;;;;;5.18;4.68;;;;;;;15.43;100.00;101524.34;5035927;28;20067;-84
2022/06/28 00:11:42;;;;;;;6.10;4.82;;;;;;;15.42;100.00;101512.13;5036075;28;20025;-84
2022/06/28 00:16:04;;;;;;;5.10;4.78;;;;;;;15.42;100.00;101516.50;5035663;28;20114;-84
2022/06/28 00:16:54;;;;;;;5.20;4.90;;;;;;;15.39;100.00;101517.44;5052659;28;20115;-84
2022/06/28 00:19:20;;;;;;;5.10;4.80;;;;;;;15.37;100.00;101514.84;5035888;28;20108;-84
2022/06/28 00:21:46;;;;;;;4.80;4.60;;;;;;;15.37;100.00;101521.88;5035715;28;20029;-84
2022/06/28 00:24:12;;;;;;;5.57;5.18;;;;;;;15.38;100.00;101523.63;5035738;28;20027;-84
2022/06/28 00:26:37;;;;;;;6.03;5.35;;;;;;;15.38;100.00;101521.84;5035558;28;20025;-84
2022/06/28 00:29:02;;;;;;;5.30;4.90;;;;;;;15.36;100.00;101526.25;5052462;28;20086;-84
2022/06/28 00:31:28;;;;;;;6.00;5.70;;;;;;;15.35;100.00;101527.19;5035540;28;20055;-84
2022/06/28 00:33:53;;;;;;;6.22;5.82;;;;;;;15.38;100.00;101523.63;5035382;28;20401;-84
2022/06/28 00:36:18;;;;;;;7.28;6.40;;;;;;;15.37;100.00;101530.63;5035373;28;20096;-84
2022/06/28 00:38:44;;;;;;;6.45;6.15;;;;;;;15.36;100.00;101544.69;5035371;28;20021;-84
2022/06/28 00:41:09;;;;;;;8.55;7.88;;;;;;;15.34;100.00;101546.50;5035485;28;20051;-84
2022/06/28 00:43:35;;;;;;;9.45;8.65;;;;;;;15.34;100.00;101551.78;5035383;28;20039;-84
2022/06/28 00:46:02;;;;;;;8.93;8.43;;;;;;;15.33;100.00;101544.78;5035450;28;20470;-84
2022/06/28 00:48:28;;;;;;;9.27;8.57;;;;;;;15.32;100.00;101548.28;5035388;28;20035;-84
2022/06/28 00:50:54;;;;;;;9.52;8.82;;;;;;;15.31;100.00;101561.50;5035091;28;20024;-83
2022/06/28 00:53:20;;;;;;;9.27;8.48;;;;;;;15.29;100.00;101558.91;5051814;28;20546;-84
2022/06/28 00:55:46;;;;;;;9.00;8.38;;;;;;;15.30;100.00;101565.91;5034816;28;20040;-84
2022/06/28 00:58:13;;;;;;;8.85;8.15;;;;;;;15.29;100.00;101564.16;5035248;28;20025;-84
2022/06/28 01:00:41;;;;;;;7.97;7.57;;;;;;;15.29;100.00;101572.06;5034861;28;20025;-84
2022/06/28 01:03:08;;;;;;;8.50;8.00;;;;;;;15.28;100.00;101578.22;5034900;28;20067;-84
2022/06/28 01:05:34;;;;;;;8.05;7.13;;;;;;;15.26;100.00;101572.13;5034822;28;20090;-84
2022/06/28 01:08:00;;;;;;;7.35;6.80;;;;;;;15.25;100.00;101567.75;5034811;28;20032;-84
2022/06/28 01:10:26;;;;;;;7.03;6.53;;;;;;;15.24;100.00;101576.53;5034885;28;20386;-83
2022/06/28 01:12:52;;;;;;;7.35;6.70;;;;;;;15.23;100.00;101574.84;5035002;28;20050;-84
2022/06/28 01:15:17;;;;;;;6.68;6.07;;;;;;;15.23;100.00;101579.22;5034636;28;20367;-84
2022/06/28 01:17:43;;;;;;;6.13;5.72;;;;;;;15.21;100.00;101574.00;5034682;28;20497;-84
2022/06/28 01:20:09;;;;;;;6.18;5.78;;;;;;;15.20;100.00;101575.78;5034716;28;20029;-84
2022/06/28 01:22:44;;;;;;;6.00;5.70;;;;;;;15.18;100.00;101572.28;5034764;28;20057;-84
2022/06/28 01:25:10;;;;;;;6.43;6.13;;;;;;;15.18;100.00;101563.53;5034590;28;20047;-84
2022/06/28 01:27:36;;;;;;;5.68;5.38;;;;;;;15.16;100.00;101570.59;5034664;28;20027;-84
2022/06/28 01:30:06;;;;;;;6.25;5.85;;;;;;;15.16;100.00;101575.84;5034612;28;20033;-84
2022/06/28 01:32:31;;;;;;;6.10;5.70;;;;;;;15.16;100.00;101582.00;5034739;28;20040;-84
2022/06/28 01:34:58;;;;;;;6.47;6.18;;;;;;;15.14;100.00;101581.16;5034198;28;20017;-84
2022/06/28 01:37:23;;;;;;;5.85;5.53;;;;;;;15.13;100.00;101570.66;5034521;28;20028;-84
2022/06/28 01:39:49;;;;;;;6.10;5.70;;;;;;;15.13;100.00;101568.03;5034318;28;20493;-84
2022/06/28 01:42:14;;;;;;;5.95;5.65;;;;;;;15.11;100.00;101572.47;5051099;28;20102;-84
2022/06/28 01:44:41;;;;;;;6.80;5.93;;;;;;;15.10;100.00;101578.63;5034178;28;20028;-84
2022/06/28 01:47:07;;;;;;;6.78;5.50;;;;;;;15.10;100.00;101583.88;5034470;28;20108;-84
2022/06/28 01:49:32;;;;;;;6.35;5.80;;;;;;;15.08;100.00;101580.41;5034132;28;20128;-84
2022/06/28 01:51:58;;;;;;;5.90;5.40;;;;;;;15.09;100.00;101587.41;5034352;28;20368;-84
2022/06/28 01:54:23;;;;;;;6.85;6.45;;;;;;;15.06;100.00;101583.06;5051070;28;20029;-84
2022/06/28 01:56:49;;;;;;;6.57;6.07;;;;;;;15.05;100.00;101578.72;5034165;28;20035;-84
2022/06/28 01:59:14;;;;;;;6.50;6.07;;;;;;;15.03;100.00;101584.00;5034193;28;20032;-84
2022/06/28 02:01:40;;;;;;;6.68;6.07;;;;;;;15.02;100.00;101590.19;5034108;28;20025;-84
2022/06/28 02:04:19;;;;;;;6.35;5.97;;;;;;;15.02;100.00;101592.81;5034268;28;20493;-84
2022/06/28 02:06:44;;;;;;;6.30;5.90;;;;;;;15.00;100.00;101589.34;5034081;28;20021;-84
2022/06/28 02:09:10;;;;;;;7.53;6.30;;;;;;;15.00;100.00;101594.59;5032874;28;20506;-84
2022/06/28 02:11:35;;;;;;;6.90;6.18;;;;;;;14.99;100.00;101582.34;5034000;28;20033;-84
2022/06/28 02:14:01;;;;;;;6.43;5.95;;;;;;;14.98;100.00;101583.25;5035837;28;20059;-84
2022/06/28 02:16:26;;;;;;;6.90;6.43;;;;;;;14.98;100.00;101585.88;5038168;28;20391;-84
2022/06/28 02:18:51;;;;;;;6.28;5.88;;;;;;;14.98;100.00;101585.88;5038011;28;20025;-84
2022/06/28 02:21:17;;;;;;;6.72;6.13;;;;;;;14.98;100.00;101579.75;5038256;28;20025;-85
2022/06/28 02:23:42;;;;;;;6.20;5.78;;;;;;;14.98;100.00;101579.75;5037931;28;20017;-84
2022/06/28 02:26:11;;;;;;;5.93;5.53;;;;;;;14.98;100.00;101579.75;5037802;28;20021;-84
2022/06/28 02:28:37;;;;;;;7.05;6.60;;;;;;;14.97;100.00;101581.50;5038308;28;20070;-84
2022/06/28 02:31:11;;;;;;;6.35;6.05;;;;;;;14.97;100.00;101573.63;5054534;28;20035;-84
2022/06/28 02:33:37;;;;;;;6.70;6.40;;;;;;;14.96;100.00;101569.25;5038007;28;20093;-84
2022/06/28 02:41:31;;;;;;;6.60;6.00;;;;;;;14.93;100.00;101555.28;5054895;28;20043;-85
2022/06/28 02:43:56;;;;;;;7.60;7.00;;;;;;;14.93;100.00;101556.16;5037477;28;20029;-85
2022/06/28 02:46:22;;;;;;;7.18;6.80;;;;;;;14.92;100.00;101549.16;5054224;28;20108;-85
2022/06/28 02:48:47;;;;;;;8.00;7.35;;;;;;;14.91;100.00;101552.69;5037387;28;20033;-85
2022/06/28 02:51:12;;;;;;;8.68;8.00;;;;;;;14.90;100.00;101550.09;5037329;28;20025;-84
2022/06/28 02:53:38;;;;;;;7.95;7.47;;;;;;;14.88;100.00;101552.75;5054526;28;20363;-84
2022/06/28 02:56:04;;;;;;;9.00;8.30;;;;;;;14.87;100.00;101557.16;5037243;28;20163;-84
2022/06/28 02:58:29;;;;;;;9.55;8.75;;;;;;;14.85;100.00;101563.34;5037421;28;20402;-84
2022/06/28 03:00:55;;;;;;;9.25;8.65;;;;;;;14.84;100.00;101572.13;5054167;28;20056;-84
2022/06/28 03:03:20;;;;;;;9.93;8.95;;;;;;;14.82;100.00;101571.28;5054026;28;20550;-84
2022/06/28 03:05:46;;;;;;;9.43;8.70;;;;;;;14.79;100.00;101576.63;5036947;28;20071;-84
2022/06/28 03:08:11;;;;;;;9.80;9.10;;;;;;;14.78;100.00;101588.03;5053791;28;20104;-85
2022/06/28 03:10:37;;;;;;;9.40;8.70;;;;;;;14.75;100.00;101593.34;5037174;28;20024;-84
2022/06/28 03:13:02;;;;;;;11.43;10.35;;;;;;;14.75;100.00;101599.50;5037209;28;20087;-84
2022/06/28 03:15:28;;;;;;;12.13;10.93;;;;;;;14.75;100.00;101603.88;5036996;28;20017;-84
2022/06/28 03:17:53;;;;;;;12.88;11.85;;;;;;;14.74;100.00;101600.38;5053693;28;20486;-85
2022/06/28 03:20:19;;;;;;;14.23;12.57;;;;;;;14.74;100.00;101597.75;5036852;28;20035;-84
2022/06/28 03:22:44;;;;;;;14.25;12.90;;;;;;;14.73;100.00;101601.28;5036927;28;20021;-84
2022/06/28 03:25:09;;;;;;;14.55;13.27;;;;;;;14.72;100.00;101599.53;5052927;28;20024;-85
2022/06/28 03:27:35;;;;;;;16.48;14.82;;;;;;;14.73;100.00;101605.69;5036848;28;20043;-84
2022/06/28 03:30:01;;;;;;;14.65;13.32;;;;;;;14.72;100.00;101611.81;5036519;28;20390;-85
2022/06/28 03:32:27;;;;;;;16.95;15.25;;;;;;;14.72;100.00;101614.47;5036861;28;20075;-85
2022/06/28 03:34:53;;;;;;;14.95;13.63;;;;;;;14.70;100.00;101615.34;5036477;28;20021;-84
2022/06/28 03:37:18;;;;;;;15.93;14.35;;;;;;;14.70;100.00;101627.63;5036569;28;20075;-85
2022/06/28 03:39:43;;;;;;;15.27;13.98;;;;;;;14.71;100.00;101626.72;5036593;28;20044;-85
2022/06/28 03:42:09;;;;;;;15.35;13.95;;;;;;;14.74;100.00;101628.44;5036650;28;20040;-84
2022/06/28 03:44:34;;;;;;;16.30;14.70;;;;;;;14.77;100.00;101636.28;5036344;28;20120;-85
2022/06/28 03:47:00;;;;;;;14.32;13.10;;;;;;;14.79;100.00;101637.09;5036519;28;20021;-84
2022/06/28 03:49:25;;;;;;;14.88;13.60;;;;;;;14.80;100.00;101637.06;5036200;28;20115;-85
2022/06/28 03:51:50;;;;;;;14.85;13.27;;;;;;;14.86;100.00;101643.97;5053081;28;20544;-84
2022/06/28 03:54:16;;;;;;;15.65;13.70;;;;;;;14.88;100.00;101650.94;5036130;28;20047;-84
2022/06/28 03:56:41;;;;;;;14.60;13.15;;;;;;;14.94;100.00;101651.72;5036330;28;20116;-84
2022/06/28 03:59:07;;;;;;;14.32;13.15;;;;;;;14.94;100.00;101657.00;5036251;28;20394;-84
2022/06/28 04:01:32;;;;;;;15.25;13.75;;;;;;;14.94;100.00;101657.84;5036100;28;20033;-85
2022/06/28 04:03:57;;;;;;;15.20;13.73;;;;;;;14.93;100.00;101658.75;5035900;28;20025;-84
2022/06/28 04:06:23;;;;;;;16.98;12.93;;;;;;;14.94;100.00;101663.09;5035987;28;20115;-85
2022/06/28 04:08:48;;;;;;;14.13;12.82;;;;;;;14.95;100.00;101664.00;5036027;28;20025;-84
2022/06/28 04:11:13;;;;;;;14.20;12.88;;;;;;;14.96;100.00;101671.00;5035927;28;20474;-85
2022/06/28 04:13:40;;;;;;;13.25;12.07;;;;;;;14.97;100.00;101673.59;5035917;28;20074;-84
2022/06/28 04:16:05;;;;;;;13.35;12.07;;;;;;;15.01;100.00;101675.28;5035834;28;20029;-85
2022/06/28 04:18:31;;;;;;;16.38;13.80;;;;;;;15.02;100.00;101686.66;5035620;28;20028;-84
2022/06/28 04:20:57;;;;;;;13.75;12.63;;;;;;;15.00;100.00;101684.06;5035755;28;20025;-84
2022/06/28 04:23:23;;;;;;;14.68;13.27;;;;;;;15.00;100.00;101697.19;5035919;28;20033;-85
2022/06/28 04:25:48;;;;;;;16.85;15.07;;;;;;;14.99;100.00;101692.84;5035518;28;20017;-85
2022/06/28 04:28:14;;;;;;;15.38;13.98;;;;;;;15.00;100.00;101691.09;5052425;28;20036;-84
2022/06/28 04:30:39;;;;;;;17.45;15.65;;;;;;;15.02;100.00;101691.91;5035419;28;20051;-83
2022/06/28 04:33:04;;;;;;;20.67;18.02;;;;;;;15.02;100.00;101700.69;5052544;28;20029;-83
2022/06/28 04:35:30;;;;;;;17.50;16.00;;;;;;;15.02;100.00;101700.69;5035096;28;20474;-83
2022/06/28 04:37:55;;;;;;;20.33;17.80;;;;;;;15.01;100.00;101717.38;5035074;28;20032;-83
2022/06/28 04:40:21;;;;;;;19.40;17.55;;;;;;;15.03;100.00;101719.97;5035423;28;20027;-84
2022/06/28 04:42:46;;;;;;;18.45;16.65;;;;;;;15.03;100.00;101723.44;5035485;28;20024;-84
2022/06/28 04:45:11;;;;;;;20.50;16.58;;;;;;;15.04;100.00;101719.94;5035304;28;20398;-83
2022/06/28 04:47:37;;;;;;;18.33;16.55;;;;;;;15.06;100.00;101722.53;5035706;28;20017;-84
2022/06/28 04:50:02;;;;;;;18.55;16.67;;;;;;;15.06;100.00;101721.69;5035283;28;20028;-83
2022/06/28 04:52:28;;;;;;;20.10;18.00;;;;;;;15.04;100.00;101724.34;5035210;28;20059;-83
2022/06/28 04:54:53;;;;;;;18.75;16.85;;;;;;;15.02;100.00;101727.00;5051828;28;20021;-83
2022/06/28 04:57:19;;;;;;;21.38;19.27;;;;;;;15.03;100.00;101730.50;5035017;28;20052;-83
2022/06/28 04:59:44;;;;;;;22.90;20.50;;;;;;;15.05;100.00;101733.94;5035296;28;20029;-83
2022/06/28 05:02:10;;;;;;;22.30;20.13;;;;;;;15.08;100.00;101722.50;5051947;28;20016;-83
2022/06/28 05:04:35;;;;;;;25.98;22.08;;;;;;;15.06;100.00;101729.56;5034997;28;20024;-83
2022/06/28 05:07:01;;;;;;;24.02;20.10;;;;;;;15.07;100.00;101726.03;5035053;28;20032;-83
2022/06/28 05:09:26;;;;;;;25.65;22.95;;;;;;;15.08;100.00;101725.13;5035032;28;20028;-83
2022/06/28 05:11:51;;;;;;;25.80;22.50;;;;;;;15.08;100.00;101720.75;5034955;28;20027;-85
2022/06/28 05:14:17;;;;;;;25.23;22.52;;;;;;;15.10;100.00;101725.97;5034528;28;20063;-85
2022/06/28 05:16:42;;;;;;;24.58;21.98;;;;;;;15.12;100.00;101718.91;5034761;28;20451;-85
2022/06/28 05:19:08;;;;;;;24.85;22.25;;;;;;;15.12;100.00;101718.91;5034745;28;20027;-85
2022/06/28 05:21:33;;;;;;;24.45;21.88;;;;;;;15.15;100.00;101714.47;5034730;28;20021;-85
2022/06/28 05:23:58;;;;;;;22.63;20.42;;;;;;;15.18;100.00;101718.81;5034621;28;20021;-85
2022/06/28 05:26:25;;;;;;;24.15;21.45;;;;;;;15.18;100.00;101721.44;5034610;28;20021;-85
2022/06/28 05:28:51;;;;;;;24.52;22.02;;;;;;;15.21;100.00;101724.88;5034562;28;20095;-85
2022/06/28 05:31:16;;;;;;;22.70;20.52;;;;;;;15.24;100.00;101718.66;5034604;28;20033;-85
2022/06/28 05:33:41;;;;;;;22.63;20.38;;;;;;;15.27;100.00;101720.38;5034540;28;20078;-85
2022/06/28 05:36:07;;;;;;;23.85;21.45;;;;;;;15.28;100.00;101719.50;5034467;28;20306;-85
2022/06/28 05:38:32;;;;;;;23.73;21.38;;;;;;;15.29;100.00;101722.09;5051120;28;20100;-85
2022/06/28 05:40:58;;;;;;;21.58;19.50;;;;;;;15.28;100.00;101709.81;5034519;28;20021;-85
2022/06/28 05:43:23;;;;;;;22.75;20.38;;;;;;;15.29;100.00;101714.19;5034519;28;20394;-85
2022/06/28 05:45:48;;;;;;;22.45;20.30;;;;;;;15.31;100.00;101715.03;5034558;28;20013;-85
2022/06/28 05:48:14;;;;;;;23.73;21.38;;;;;;;15.34;100.00;101712.34;5050969;28;20020;-85
2022/06/28 05:50:40;;;;;;;22.60;20.33;;;;;;;15.40;100.00;101721.03;5034464;28;20052;-85
2022/06/28 05:53:05;;;;;;;23.48;21.02;;;;;;;15.45;100.00;101721.81;5034489;28;20112;-84
2022/06/28 05:55:31;;;;;;;23.15;20.65;;;;;;;15.49;100.00;101720.84;5034251;28;20487;-85
2022/06/28 05:57:57;;;;;;;22.33;20.13;;;;;;;15.49;100.00;101718.22;5034307;28;20694;-85
2022/06/28 06:00:22;;;;;;;22.60;20.25;;;;;;;15.50;100.00;101719.91;5034185;28;20021;-85
2022/06/28 06:02:48;;;;;;;23.50;20.35;;;;;;;15.52;100.00;101718.13;5034267;28;20029;-85
2022/06/28 06:05:13;;;;;;;21.70;19.55;;;;;;;15.51;100.00;101724.28;5034125;28;20110;-85
2022/06/28 06:07:39;;;;;;;21.95;19.55;;;;;;;15.48;100.00;101724.38;5034133;28;20377;-85
2022/06/28 06:10:05;;;;;;;22.15;19.80;;;;;;;15.48;100.00;101721.72;5034207;28;20031;-85
2022/06/28 06:12:30;;;;;;;25.02;21.35;;;;;;;15.49;100.00;101718.22;5034299;28;20497;-85
2022/06/28 06:14:58;;;;;;;26.20;22.83;;;;;;;15.55;100.00;101713.66;5034120;28;20086;-85
2022/06/28 06:17:24;;;;;;;29.42;22.73;;;;;;;15.59;100.00;101718.88;5034206;28;20435;-85
2022/06/28 06:19:49;;;;;;;28.40;21.88;;;;;;;15.57;100.00;101718.91;5050721;28;20025;-85
2022/06/28 06:22:15;;;;;;;26.23;22.10;;;;;;;15.57;100.00;101711.03;5034012;28;20021;-85
2022/06/28 06:24:40;;;;;;;24.77;22.10;;;;;;;15.64;100.00;101717.88;5034234;28;20071;-85
2022/06/28 06:27:06;;;;;;;28.75;22.95;;;;;;;15.67;100.00;101717.81;5034039;28;20108;-85
2022/06/28 06:29:31;;;;;;;24.02;21.55;;;;;;;15.69;100.00;101725.66;5033944;28;20382;-85
2022/06/28 06:31:57;;;;;;;23.88;20.75;;;;;;;15.61;100.00;101725.84;5050978;28;20053;-85
2022/06/28 06:34:23;;;;;;;20.67;18.58;;;;;;;15.58;100.00;101723.25;5033830;28;20055;-85
2022/06/28 06:36:49;;;;;;;20.00;18.10;;;;;;;15.52;100.00;101731.31;5034088;28;20164;-85
2022/06/28 06:39:14;;;;;;;19.38;17.70;;;;;;;15.48;100.00;101733.13;5033807;28;20534;-85
2022/06/28 06:41:40;;;;;;;21.08;18.95;;;;;;;15.44;100.00;101730.59;5050583;28;20025;-85
2022/06/28 06:44:05;;;;;;;21.80;19.40;;;;;;;15.45;100.00;101737.59;5033856;28;20029;-85
2022/06/28 06:46:31;;;;;;;21.30;19.10;;;;;;;15.40;100.00;101736.81;5050524;28;20040;-85
2022/06/28 06:48:56;;;;;;;24.40;19.60;;;;;;;15.38;100.00;101742.13;5033948;28;20083;-85
2022/06/28 06:51:22;;;;;;;19.13;17.15;;;;;;;15.40;100.00;101747.34;5033748;28;20044;-86
2022/06/28 06:53:47;;;;;;;25.83;19.02;;;;;;;15.41;100.00;101743.81;5033865;28;20108;-85
2022/06/28 06:56:13;;;;;;;19.40;17.40;;;;;;;15.43;100.00;101739.38;5033613;28;20497;-85
2022/06/28 06:58:38;;;;;;;22.40;17.65;;;;;;;15.48;100.00;101748.06;5033623;28;20433;-85
2022/06/28 07:01:04;;;;;;;18.67;16.77;;;;;;;15.51;100.00;101753.25;5053655;28;20063;-85
2022/06/28 07:03:29;;;;;;;22.60;16.95;;;;;;;15.52;100.00;101755.00;5037382;28;20025;-85
2022/06/28 07:05:54;;;;;;;16.70;15.20;;;;;;;15.53;100.00;101751.47;5036273;28;20063;-85
2022/06/28 07:08:20;;;;;;;16.42;14.50;;;;;;;15.58;100.00;101759.28;5036984;28;20074;-85
2022/06/28 07:10:46;;;;;;;17.92;14.57;;;;;;;15.63;100.00;101753.00;5035456;28;20118;-86
2022/06/28 07:13:11;;;;;;;21.08;15.77;;;;;;;15.67;100.00;101751.19;5035094;28;20173;-86
2022/06/28 07:15:37;;;;;;;18.17;15.68;;;;;;;15.68;100.00;101761.69;5035368;28;20071;-85
2022/06/28 07:18:03;;;;;;;15.73;14.02;;;;;;;15.69;100.00;101760.81;5035527;28;20041;-85
2022/06/28 07:20:28;;;;;;;17.00;13.70;;;;;;;15.66;100.00;101770.53;5035074;28;20151;-86
2022/06/28 07:22:54;;;;;;;13.02;11.93;;;;;;;15.68;100.00;101771.38;5035154;28;20048;-85
2022/06/28 07:25:19;;;;;;;11.68;10.25;;;;;;;15.67;97.74;101769.63;5036210;28;20032;-85
2022/06/28 07:27:45;;;;;;;8.63;7.93;;;;;;;15.62;96.83;101769.69;5036941;28;20021;-86
2022/06/28 07:30:12;;;;;;;8.65;8.07;;;;;;;15.62;97.97;101772.34;5020574;28;20106;-85
2022/06/28 07:32:38;;;;;;;8.02;7.43;;;;;;;15.63;100.00;101768.81;5036694;28;20037;-86
2022/06/28 07:35:04;;;;;;;7.15;6.50;;;;;;;15.63;100.00;101774.06;5053461;28;20024;-85
2022/06/28 07:37:30;;;;;;;6.07;5.68;;;;;;;15.66;100.00;101770.53;5036814;28;20043;-83
2022/06/28 07:39:55;;;;;;;5.32;4.80;;;;;;;15.65;100.00;101780.19;5036671;28;20116;-84
2022/06/28 07:42:20;;;;;;;4.40;4.10;;;;;;;15.63;94.80;101778.50;5036622;28;20029;-83
2022/06/28 07:44:46;;;;;;;4.20;3.38;;;;;;;15.68;93.16;101780.13;5053220;28;20025;-84
2022/06/28 07:47:11;;;;;;;3.45;3.10;;;;;;;15.67;94.03;101786.28;5036580;28;20021;-83
2022/06/28 07:55:15;;;;;;;2.92;2.58;;;;;;;15.68;92.13;101793.28;5040277;28;20057;-83
2022/06/28 07:57:41;;;;;;;6.45;2.80;;;;;;;15.71;91.55;101789.75;5036253;28;20075;-84
2022/06/28 08:00:07;;;;;;;1.90;1.58;;;;;;;15.72;88.96;101783.56;5036282;28;20016;-83
2022/06/28 08:02:32;;;;;;;3.20;2.10;;;;;;;15.79;88.68;101790.44;5036145;28;20028;-84
2022/06/28 08:04:58;;;;;;;5.40;2.10;;;;;;;15.84;87.49;101793.00;5036113;28;20470;-83
2022/06/28 08:07:24;;;;;;;2.13;1.83;;;;;;;15.85;88.31;101789.47;5036150;28;20078;-84
2022/06/28 08:09:49;;;;;;;2.60;2.15;;;;;;;15.91;91.64;101792.00;5052887;28;20033;-84
2022/06/28 08:12:14;;;;;;;2.88;1.85;;;;;;;15.93;87.94;101787.56;5034945;28;20029;-84
2022/06/28 08:14:40;;;;;;;1.67;1.58;;;;;;;15.95;88.55;101796.31;5036029;28;20033;-84
2022/06/28 08:17:05;;;;;;;2.90;1.00;;;;;;;15.95;86.06;101788.41;5036312;28;20029;-84
2022/06/28 08:19:31;;;;;;;3.17;1.00;;;;;;;15.94;84.42;101789.28;5035859;28;20021;-84
2022/06/28 08:21:57;;;;;;;1.67;1.00;;;;;;;15.93;81.08;101795.44;5035739;28;20078;-84
2022/06/28 08:24:22;;;;;;;1.80;1.17;;;;;;;15.95;84.04;101800.69;5052860;28;20028;-84
2022/06/28 08:26:48;;;;;;;4.20;1.80;;;;;;;15.96;81.67;101800.66;5035928;28;20436;-84
2022/06/28 08:29:15;;;;;;;2.30;1.45;;;;;;;16.02;81.49;101797.00;5035585;28;20025;-84
2022/06/28 08:31:41;;;;;;;3.30;1.30;;;;;;;16.08;81.86;101799.53;5052224;28;20025;-84
2022/06/28 08:34:06;;;;;;;1.73;0.90;;;;;;;16.09;81.77;101803.03;5035562;28;20106;-84
2022/06/28 08:36:32;;;;;;;3.05;0.90;;;;;;;16.05;79.17;101799.59;5035516;28;20025;-84
2022/06/28 08:38:58;;;;;;;1.98;1.10;;;;;;;16.04;81.46;101811.91;5052171;28;20066;-84
2022/06/28 08:41:28;;;;;;;4.03;2.00;;;;;;;16.11;82.86;101803.88;5035466;28;20028;-84
2022/06/28 08:43:55;;;;;;;4.97;2.25;;;;;;;16.19;80.83;101804.56;5035405;28;20028;-84
2022/06/28 08:46:21;;;;;;;1.75;1.50;;;;;;;16.32;80.26;101805.16;5035455;28;20017;-83
2022/06/28 08:48:52;;;;;;;1.40;1.10;;;;;;;16.43;82.54;101803.16;5051952;28;20179;-86
2022/06/28 08:51:17;;;;;;;1.23;1.02;;;;;;;16.48;80.08;101809.16;5035672;28;20470;-86
2022/06/28 08:53:46;;;;;;;1.50;1.17;;;;;;;16.53;78.50;101806.44;5035212;28;20032;-86
2022/06/28 08:56:12;;;;;;;1.67;1.25;;;;;;;16.61;82.22;101812.41;5052052;28;20475;-86
2022/06/28 08:58:44;;;;;;;2.28;1.88;;;;;;;16.65;79.84;101808.78;5035429;28;20024;-86
2022/06/28 09:01:12;;;;;;;1.88;1.45;;;;;;;16.73;81.27;101809.47;5034960;28;20028;-86
2022/06/28 09:03:38;;;;;;;4.00;1.65;;;;;;;16.75;80.46;101808.56;5035132;28;20016;-84
2022/06/28 09:06:04;;;;;;;1.40;1.20;;;;;;;16.72;80.80;101810.34;5035123;28;20494;-84
2022/06/28 09:08:29;;;;;;;1.83;1.42;;;;;;;16.70;80.42;101806.91;5052072;28;20112;-84
2022/06/28 09:10:55;;;;;;;2.22;1.08;;;;;;;16.63;81.76;101805.31;5034846;28;20486;-84
2022/06/28 09:13:21;;;;;;;1.83;1.30;;;;;;;16.58;82.30;101804.56;5034967;28;20029;-83
2022/06/28 09:16:00;;;;;;;1.40;1.17;;;;;;;16.58;83.95;101801.94;5035074;28;20047;-83
2022/06/28 09:18:47;;;;;;;3.33;1.40;;;;;;;16.59;83.33;101794.88;5034682;28;20537;-84
2022/06/28 09:21:16;;;;;;;2.22;1.00;;;;;;;16.59;75.17;101798.38;5052349;28;20037;-84
2022/06/28 09:23:46;;;;;;;3.15;0.93;;;;;;;16.67;76.29;101799.03;5034558;28;20021;-84
2022/06/28 09:26:17;;;;;;;3.00;1.00;;;;;;;16.69;77.06;101794.63;5034674;28;20024;-84
2022/06/28 09:28:45;;;;;;;1.58;1.20;;;;;;;16.67;74.63;101806.97;5034526;28;20131;-84
2022/06/28 09:31:14;;;;;;;1.65;1.27;;;;;;;16.66;75.63;101799.97;5035049;28;20637;-84
2022/06/28 09:33:41;;;;;;;1.85;1.20;;;;;;;16.67;77.37;101800.81;5051308;28;20497;-84
2022/06/28 09:36:09;;;;;;;1.38;1.00;;;;;;;16.71;77.91;101802.50;5034716;28;20036;-84
2022/06/28 09:38:35;;;;;;;1.38;0.90;;;;;;;16.76;77.72;101799.75;5034698;28;20074;-84
2022/06/28 09:41:00;;;;;;;1.83;1.08;;;;;;;16.78;76.15;101800.56;5034731;28;20431;-86
2022/06/28 09:43:32;;;;;;;1.13;0.98;;;;;;;16.77;73.36;101791.78;5034440;28;20143;-85
2022/06/28 09:45:58;;;;;;;1.30;1.08;;;;;;;16.80;74.39;101797.00;5051270;28;20168;-85
2022/06/28 09:48:24;;;;;;;1.58;0.77;;;;;;;16.83;72.49;101796.06;5050887;28;20027;-86
2022/06/28 09:50:57;;;;;;;1.33;1.02;;;;;;;16.91;74.49;101783.56;5049937;28;20017;-86
2022/06/28 09:53:23;;;;;;;3.35;1.45;;;;;;;16.99;77.41;101776.31;5033568;28;20020;-86
2022/06/28 09:55:49;;;;;;;1.17;1.08;;;;;;;17.08;79.08;101783.13;5034342;28;20501;-84
2022/06/28 09:58:14;;;;;;;2.00;1.02;;;;;;;17.19;76.82;101786.34;5033881;28;20021;-86
2022/06/28 10:00:41;;;;;;;1.42;0.90;;;;;;;17.30;73.18;101791.34;5034160;28;20402;-86
2022/06/28 10:03:07;;;;;;;1.73;0.93;;;;;;;17.39;70.12;101796.34;5034399;28;20220;-85
2022/06/28 10:05:33;;;;;;;0.70;0.70;;;;;;;17.44;71.47;101798.00;5034233;28;20095;-85
2022/06/28 10:07:58;;;;;;;1.92;0.93;;;;;;;17.48;73.21;101794.38;5033800;28;20055;-84
2022/06/28 10:10:24;;;;;;;1.40;0.68;;;;;;;17.50;72.34;101795.22;5034555;28;20032;-85
2022/06/28 10:15:37;;;;;;;1.98;0.77;;;;;;;17.39;74.75;101801.63;5051352;28;20090;-82
2022/06/28 10:18:11;;;;;;;1.08;0.98;;;;;;;17.33;76.89;101796.53;5034772;28;20033;-81
2022/06/28 10:20:38;;;;;;;0.98;0.82;;;;;;;17.24;76.23;101792.34;5052400;28;20021;-82
2022/06/28 10:23:33;;;;;;;1.83;1.05;;;;;;;17.19;73.91;101782.84;5034143;28;20445;-82
2022/06/28 10:26:17;;;;;;;2.85;1.00;;;;;;;17.20;76.11;101787.22;5050728;28;20111;-82
2022/06/28 10:28:45;;;;;;;1.67;1.10;;;;;;;17.21;75.22;101781.88;5050888;28;20029;-82
2022/06/28 10:31:25;;;;;;;1.55;1.10;;;;;;;17.27;74.10;101774.72;5076641;23;20057;-84
2022/06/28 10:34:02;;;;;;;3.22;1.20;;;;;;;17.30;76.04;101780.78;5027569;28;20103;-84
2022/06/28 10:37:00;;;;;;;2.78;1.08;;;;;;;17.33;75.98;101780.69;5014725;28;20029;-84
2022/06/28 10:39:26;;;;;;;2.85;1.00;;;;;;;17.38;71.83;101789.38;5028964;28;20056;-84
2022/06/28 10:41:58;;;;;;;2.00;1.05;;;;;;;17.46;73.08;101780.34;5034374;28;20025;-84
2022/06/28 10:44:28;;;;;;;3.75;1.05;;;;;;;17.52;71.72;101765.22;5034182;28;20029;-84
2022/06/28 10:47:06;;;;;;;3.22;1.00;;;;;;;17.57;71.72;101763.31;5017764;28;20018;-84
2022/06/28 10:49:46;;;;;;;3.17;1.00;;;;;;;17.64;70.38;101768.41;5034316;28;20029;-83
2022/06/28 10:52:16;;;;;;;1.10;0.90;;;;;;;17.69;71.33;101761.22;5034307;28;20590;-84
2022/06/28 10:55:04;;;;;;;1.17;0.88;;;;;;;17.79;71.72;101759.16;5017614;28;20132;-84
2022/06/28 10:57:33;;;;;;;1.63;0.90;;;;;;;17.93;67.79;101758.78;5033946;28;20032;-84
2022/06/28 11:00:10;;;;;;;3.00;1.10;;;;;;;18.12;69.58;101756.44;5034170;28;20482;-83
2022/06/28 11:02:50;;;;;;;1.30;0.98;;;;;;;18.26;64.11;101764.81;5017795;28;20051;-83
2022/06/28 11:05:18;;;;;;;1.75;1.10;;;;;;;18.37;65.38;101749.47;5035706;28;20029;-83
2022/06/28 11:08:01;;;;;;;0.90;0.60;;;;;;;18.49;64.85;101753.50;5017548;28;20029;-83
2022/06/28 11:10:27;;;;;;;1.92;1.02;;;;;;;18.63;63.44;101755.69;5017673;28;20553;-83
2022/06/28 11:12:53;;;;;;;2.10;0.85;;;;;;;18.79;63.21;101755.16;5018076;28;20030;-83
2022/06/28 11:15:27;;;;;;;1.27;0.90;;;;;;;18.96;61.77;101758.13;5017437;28;20108;-83
2022/06/28 11:17:53;;;;;;;;;;;;;;;19.09;60.87;101759.44;5034459;28;20029;-83
2022/06/28 11:20:24;;;;;;;1.33;1.10;;;;;;;19.22;59.77;101756.34;5034066;28;20328;-83
2022/06/28 11:22:50;;;;;;;2.10;0.98;;;;;;;19.25;59.29;101754.47;5017555;28;20083;-83
2022/06/28 11:25:20;;;;;;;1.20;1.10;;;;;;;19.23;64.17;101756.28;5017361;28;20478;-83
2022/06/28 11:27:49;;;;;;;3.33;1.13;;;;;;;19.14;62.03;101750.47;5016360;28;20024;-83